sensor_id;sensor_type;location;lat;lon;timestamp;P1;durP1;ratioP1;P2;durP2;ratioP2
13743;SDS011;6943;52.368;9.966;2022-10-31T00:01:23;12.27;;;6.40;;
13743;SDS011;6943;52.368;9.966;2022-10-31T00:03:50;13.57;;;6.67;;
13743;SDS011;6943;52.368;9.966;2022-10-31T00:06:16;12.07;;;7.60;;
13743;SDS011;6943;52.368;9.966;2022-10-31T00:08:45;14.90;;;7.80;;
13743;SDS011;6943;52.368;9.966;2022-10-31T00:11:11;13.50;;;9.03;;
13743;SDS011;6943;52.368;9.966;2022-10-31T00:13:37;15.00;;;8.50;;
13743;SDS011;6943;52.368;9.966;2022-10-31T00:16:03;15.53;;;8.03;;
13743;SDS011;6943;52.368;9.966;2022-10-31T00:18:29;13.27;;;7.03;;
13743;SDS011;6943;52.368;9.966;2022-10-31T00:20:58;7.60;;;5.70;;
13743;SDS011;6943;52.368;9.966;2022-10-31T00:23:27;11.67;;;6.13;;
13743;SDS011;6943;52.368;9.966;2022-10-31T00:25:53;10.43;;;6.03;;
13743;SDS011;6943;52.368;9.966;2022-10-31T00:28:19;10.00;;;5.50;;
13743;SDS011;6943;52.368;9.966;2022-10-31T00:30:44;10.93;;;6.20;;
13743;SDS011;6943;52.368;9.966;2022-10-31T00:33:10;8.43;;;6.03;;
13743;SDS011;6943;52.368;9.966;2022-10-31T00:35:35;10.70;;;5.87;;
13743;SDS011;6943;52.368;9.966;2022-10-31T00:38:01;13.40;;;6.23;;
13743;SDS011;6943;52.368;9.966;2022-10-31T00:40:26;11.83;;;6.43;;
13743;SDS011;6943;52.368;9.966;2022-10-31T00:42:52;12.13;;;6.60;;
13743;SDS011;6943;52.368;9.966;2022-10-31T00:45:17;9.73;;;5.93;;
13743;SDS011;6943;52.368;9.966;2022-10-31T00:47:43;12.20;;;7.10;;
13743;SDS011;6943;52.368;9.966;2022-10-31T00:50:08;11.77;;;6.67;;
13743;SDS011;6943;52.368;9.966;2022-10-31T00:52:34;15.80;;;7.03;;
13743;SDS011;6943;52.368;9.966;2022-10-31T00:54:59;11.47;;;7.30;;
13743;SDS011;6943;52.368;9.966;2022-10-31T00:57:25;14.57;;;7.60;;
13743;SDS011;6943;52.368;9.966;2022-10-31T00:59:51;15.07;;;8.30;;
13743;SDS011;6943;52.368;9.966;2022-10-31T01:02:16;15.93;;;8.23;;
13743;SDS011;6943;52.368;9.966;2022-10-31T01:04:42;12.40;;;7.93;;
13743;SDS011;6943;52.368;9.966;2022-10-31T01:07:07;12.10;;;8.57;;
13743;SDS011;6943;52.368;9.966;2022-10-31T01:09:33;12.60;;;9.40;;
13743;SDS011;6943;52.368;9.966;2022-10-31T01:11:58;18.83;;;10.70;;
13743;SDS011;6943;52.368;9.966;2022-10-31T01:14:24;16.13;;;10.13;;
13743;SDS011;6943;52.368;9.966;2022-10-31T01:16:49;17.50;;;9.67;;
13743;SDS011;6943;52.368;9.966;2022-10-31T01:19:15;15.97;;;10.80;;
13743;SDS011;6943;52.368;9.966;2022-10-31T01:21:40;20.37;;;10.80;;
13743;SDS011;6943;52.368;9.966;2022-10-31T01:24:06;18.93;;;11.60;;
13743;SDS011;6943;52.368;9.966;2022-10-31T01:26:32;17.50;;;11.70;;
13743;SDS011;6943;52.368;9.966;2022-10-31T01:29:03;19.10;;;12.87;;
13743;SDS011;6943;52.368;9.966;2022-10-31T01:31:32;21.77;;;12.77;;
13743;SDS011;6943;52.368;9.966;2022-10-31T01:33:59;22.90;;;13.33;;
13743;SDS011;6943;52.368;9.966;2022-10-31T01:36:29;19.47;;;13.70;;
13743;SDS011;6943;52.368;9.966;2022-10-31T01:39:00;23.10;;;14.53;;
13743;SDS011;6943;52.368;9.966;2022-10-31T01:41:30;22.93;;;14.20;;
13743;SDS011;6943;52.368;9.966;2022-10-31T01:43:59;23.30;;;14.97;;
13743;SDS011;6943;52.368;9.966;2022-10-31T01:48:57;25.53;;;16.03;;
13743;SDS011;6943;52.368;9.966;2022-10-31T01:51:28;27.47;;;17.83;;
13743;SDS011;6943;52.368;9.966;2022-10-31T01:53:58;27.20;;;17.00;;
13743;SDS011;6943;52.368;9.966;2022-10-31T01:56:26;30.10;;;18.97;;
13743;SDS011;6943;52.368;9.966;2022-10-31T01:58:52;26.90;;;17.77;;
13743;SDS011;6943;52.368;9.966;2022-10-31T02:01:20;30.47;;;18.30;;
13743;SDS011;6943;52.368;9.966;2022-10-31T02:03:45;31.27;;;18.70;;
13743;SDS011;6943;52.368;9.966;2022-10-31T02:06:16;27.60;;;18.80;;
13743;SDS011;6943;52.368;9.966;2022-10-31T02:08:51;30.13;;;18.40;;
13743;SDS011;6943;52.368;9.966;2022-10-31T02:11:18;30.83;;;20.27;;
13743;SDS011;6943;52.368;9.966;2022-10-31T02:13:44;29.13;;;18.93;;
13743;SDS011;6943;52.368;9.966;2022-10-31T02:16:10;32.33;;;20.20;;
13743;SDS011;6943;52.368;9.966;2022-10-31T02:18:36;35.77;;;19.97;;
13743;SDS011;6943;52.368;9.966;2022-10-31T02:37:11;40.03;;;23.90;;
13743;SDS011;6943;52.368;9.966;2022-10-31T02:39:45;34.40;;;22.50;;
13743;SDS011;6943;52.368;9.966;2022-10-31T02:42:30;35.00;;;22.43;;
13743;SDS011;6943;52.368;9.966;2022-10-31T02:47:53;35.63;;;23.60;;
13743;SDS011;6943;52.368;9.966;2022-10-31T02:50:23;39.87;;;25.33;;
13743;SDS011;6943;52.368;9.966;2022-10-31T02:52:53;38.77;;;24.60;;
13743;SDS011;6943;52.368;9.966;2022-10-31T02:57:47;39.80;;;25.73;;
13743;SDS011;6943;52.368;9.966;2022-10-31T03:00:13;46.87;;;29.10;;
13743;SDS011;6943;52.368;9.966;2022-10-31T03:05:50;40.93;;;28.10;;
13743;SDS011;6943;52.368;9.966;2022-10-31T03:08:41;44.90;;;27.43;;
13743;SDS011;6943;52.368;9.966;2022-10-31T03:11:08;46.43;;;28.20;;
13743;SDS011;6943;52.368;9.966;2022-10-31T03:13:48;44.20;;;27.40;;
13743;SDS011;6943;52.368;9.966;2022-10-31T03:16:34;43.87;;;27.57;;
13743;SDS011;6943;52.368;9.966;2022-10-31T03:19:16;43.87;;;27.43;;
13743;SDS011;6943;52.368;9.966;2022-10-31T03:24:27;46.60;;;27.97;;
13743;SDS011;6943;52.368;9.966;2022-10-31T03:26:59;42.83;;;28.70;;
13743;SDS011;6943;52.368;9.966;2022-10-31T03:29:27;45.33;;;29.13;;
13743;SDS011;6943;52.368;9.966;2022-10-31T03:32:04;51.27;;;29.13;;
13743;SDS011;6943;52.368;9.966;2022-10-31T03:34:32;46.13;;;30.17;;
13743;SDS011;6943;52.368;9.966;2022-10-31T03:37:02;49.07;;;28.60;;
13743;SDS011;6943;52.368;9.966;2022-10-31T03:39:30;43.57;;;27.23;;
13743;SDS011;6943;52.368;9.966;2022-10-31T03:41:58;45.80;;;29.70;;
13743;SDS011;6943;52.368;9.966;2022-10-31T03:44:29;48.63;;;27.77;;
13743;SDS011;6943;52.368;9.966;2022-10-31T03:46:57;39.20;;;26.60;;
13743;SDS011;6943;52.368;9.966;2022-10-31T03:49:23;49.47;;;29.73;;
13743;SDS011;6943;52.368;9.966;2022-10-31T03:52:00;48.63;;;28.97;;
13743;SDS011;6943;52.368;9.966;2022-10-31T03:55:05;48.30;;;29.30;;
13743;SDS011;6943;52.368;9.966;2022-10-31T03:57:41;48.30;;;28.87;;
13743;SDS011;6943;52.368;9.966;2022-10-31T04:00:13;46.53;;;29.13;;
13743;SDS011;6943;52.368;9.966;2022-10-31T04:02:45;48.53;;;29.10;;
13743;SDS011;6943;52.368;9.966;2022-10-31T04:05:22;48.53;;;28.40;;
13743;SDS011;6943;52.368;9.966;2022-10-31T04:07:49;46.47;;;28.10;;
13743;SDS011;6943;52.368;9.966;2022-10-31T04:10:18;49.90;;;28.47;;
13743;SDS011;6943;52.368;9.966;2022-10-31T04:12:46;44.53;;;28.10;;
13743;SDS011;6943;52.368;9.966;2022-10-31T04:15:16;43.80;;;27.80;;
13743;SDS011;6943;52.368;9.966;2022-10-31T04:17:42;47.50;;;28.70;;
13743;SDS011;6943;52.368;9.966;2022-10-31T04:20:13;47.27;;;27.23;;
13743;SDS011;6943;52.368;9.966;2022-10-31T04:22:41;46.37;;;28.20;;
13743;SDS011;6943;52.368;9.966;2022-10-31T04:25:07;43.00;;;26.97;;
13743;SDS011;6943;52.368;9.966;2022-10-31T04:27:33;46.33;;;29.63;;
13743;SDS011;6943;52.368;9.966;2022-10-31T04:29:58;42.57;;;26.27;;
13743;SDS011;6943;52.368;9.966;2022-10-31T04:32:24;47.97;;;29.33;;
13743;SDS011;6943;52.368;9.966;2022-10-31T04:34:50;50.73;;;29.77;;
13743;SDS011;6943;52.368;9.966;2022-10-31T04:37:15;47.37;;;28.23;;
13743;SDS011;6943;52.368;9.966;2022-10-31T04:39:41;45.30;;;28.37;;
13743;SDS011;6943;52.368;9.966;2022-10-31T04:42:06;44.03;;;28.53;;
13743;SDS011;6943;52.368;9.966;2022-10-31T04:44:32;52.23;;;29.80;;
13743;SDS011;6943;52.368;9.966;2022-10-31T04:46:57;49.67;;;29.63;;
13743;SDS011;6943;52.368;9.966;2022-10-31T04:49:23;59.33;;;30.70;;
13743;SDS011;6943;52.368;9.966;2022-10-31T04:51:48;50.07;;;30.17;;
13743;SDS011;6943;52.368;9.966;2022-10-31T04:54:14;50.40;;;29.33;;
13743;SDS011;6943;52.368;9.966;2022-10-31T04:56:40;45.60;;;28.43;;
13743;SDS011;6943;52.368;9.966;2022-10-31T04:59:05;52.13;;;29.93;;
13743;SDS011;6943;52.368;9.966;2022-10-31T05:01:31;48.60;;;30.13;;
13743;SDS011;6943;52.368;9.966;2022-10-31T05:03:56;45.83;;;29.03;;
13743;SDS011;6943;52.368;9.966;2022-10-31T05:06:22;44.43;;;28.07;;
13743;SDS011;6943;52.368;9.966;2022-10-31T05:08:47;53.10;;;29.27;;
13743;SDS011;6943;52.368;9.966;2022-10-31T05:11:13;42.67;;;28.37;;
13743;SDS011;6943;52.368;9.966;2022-10-31T05:13:38;43.97;;;27.10;;
13743;SDS011;6943;52.368;9.966;2022-10-31T05:16:04;48.20;;;26.97;;
13743;SDS011;6943;52.368;9.966;2022-10-31T05:18:30;43.73;;;26.80;;
13743;SDS011;6943;52.368;9.966;2022-10-31T05:20:55;47.27;;;27.47;;
13743;SDS011;6943;52.368;9.966;2022-10-31T05:23:21;44.27;;;27.40;;
13743;SDS011;6943;52.368;9.966;2022-10-31T05:25:46;44.77;;;27.67;;
13743;SDS011;6943;52.368;9.966;2022-10-31T05:28:12;39.63;;;25.97;;
13743;SDS011;6943;52.368;9.966;2022-10-31T05:30:37;45.60;;;27.67;;
13743;SDS011;6943;52.368;9.966;2022-10-31T05:33:03;44.03;;;26.77;;
13743;SDS011;6943;52.368;9.966;2022-10-31T05:35:29;43.97;;;27.87;;
13743;SDS011;6943;52.368;9.966;2022-10-31T05:37:57;41.83;;;27.07;;
13743;SDS011;6943;52.368;9.966;2022-10-31T05:40:24;45.70;;;26.80;;
13743;SDS011;6943;52.368;9.966;2022-10-31T05:42:51;51.80;;;29.40;;
13743;SDS011;6943;52.368;9.966;2022-10-31T05:45:17;46.27;;;28.50;;
13743;SDS011;6943;52.368;9.966;2022-10-31T05:47:50;46.10;;;25.37;;
13743;SDS011;6943;52.368;9.966;2022-10-31T05:50:17;46.17;;;27.33;;
13743;SDS011;6943;52.368;9.966;2022-10-31T05:52:43;45.10;;;26.93;;
13743;SDS011;6943;52.368;9.966;2022-10-31T05:55:09;43.07;;;27.37;;
13743;SDS011;6943;52.368;9.966;2022-10-31T05:57:34;45.23;;;27.17;;
13743;SDS011;6943;52.368;9.966;2022-10-31T06:00:00;48.13;;;28.13;;
13743;SDS011;6943;52.368;9.966;2022-10-31T06:02:26;45.50;;;28.10;;
13743;SDS011;6943;52.368;9.966;2022-10-31T06:04:51;40.70;;;27.93;;
13743;SDS011;6943;52.368;9.966;2022-10-31T06:07:17;57.33;;;28.70;;
13743;SDS011;6943;52.368;9.966;2022-10-31T06:09:42;40.67;;;26.50;;
13743;SDS011;6943;52.368;9.966;2022-10-31T06:12:08;42.10;;;26.73;;
13743;SDS011;6943;52.368;9.966;2022-10-31T06:14:33;46.50;;;25.90;;
13743;SDS011;6943;52.368;9.966;2022-10-31T06:16:59;44.83;;;27.10;;
13743;SDS011;6943;52.368;9.966;2022-10-31T06:19:25;47.40;;;27.23;;
13743;SDS011;6943;52.368;9.966;2022-10-31T06:21:50;39.50;;;25.43;;
13743;SDS011;6943;52.368;9.966;2022-10-31T06:24:15;36.60;;;25.50;;
13743;SDS011;6943;52.368;9.966;2022-10-31T06:26:41;43.83;;;26.47;;
13743;SDS011;6943;52.368;9.966;2022-10-31T06:29:07;41.33;;;25.07;;
13743;SDS011;6943;52.368;9.966;2022-10-31T06:31:32;36.40;;;26.10;;
13743;SDS011;6943;52.368;9.966;2022-10-31T06:33:58;38.27;;;25.63;;
13743;SDS011;6943;52.368;9.966;2022-10-31T06:36:23;37.83;;;23.67;;
13743;SDS011;6943;52.368;9.966;2022-10-31T06:38:50;34.57;;;21.90;;
13743;SDS011;6943;52.368;9.966;2022-10-31T06:41:15;36.03;;;22.37;;
13743;SDS011;6943;52.368;9.966;2022-10-31T06:43:41;33.17;;;21.87;;
13743;SDS011;6943;52.368;9.966;2022-10-31T06:46:06;32.30;;;21.37;;
13743;SDS011;6943;52.368;9.966;2022-10-31T06:48:32;29.67;;;20.27;;
13743;SDS011;6943;52.368;9.966;2022-10-31T06:50:58;33.80;;;22.30;;
13743;SDS011;6943;52.368;9.966;2022-10-31T06:53:24;28.40;;;20.80;;
13743;SDS011;6943;52.368;9.966;2022-10-31T06:55:50;29.37;;;20.77;;
13743;SDS011;6943;52.368;9.966;2022-10-31T06:58:16;29.00;;;20.33;;
13743;SDS011;6943;52.368;9.966;2022-10-31T07:00:41;32.50;;;21.77;;
13743;SDS011;6943;52.368;9.966;2022-10-31T07:03:11;30.03;;;21.43;;
13743;SDS011;6943;52.368;9.966;2022-10-31T07:05:38;30.40;;;19.33;;
13743;SDS011;6943;52.368;9.966;2022-10-31T07:08:04;27.00;;;19.43;;
13743;SDS011;6943;52.368;9.966;2022-10-31T07:10:32;24.80;;;19.13;;
13743;SDS011;6943;52.368;9.966;2022-10-31T07:13:00;24.03;;;17.97;;
13743;SDS011;6943;52.368;9.966;2022-10-31T07:15:29;22.10;;;17.80;;
13743;SDS011;6943;52.368;9.966;2022-10-31T07:17:59;20.53;;;15.87;;
13743;SDS011;6943;52.368;9.966;2022-10-31T07:20:29;22.07;;;16.10;;
13743;SDS011;6943;52.368;9.966;2022-10-31T07:22:55;20.37;;;15.07;;
13743;SDS011;6943;52.368;9.966;2022-10-31T07:25:21;19.30;;;15.73;;
13743;SDS011;6943;52.368;9.966;2022-10-31T07:27:46;18.53;;;15.07;;
13743;SDS011;6943;52.368;9.966;2022-10-31T07:30:13;18.57;;;16.13;;
13743;SDS011;6943;52.368;9.966;2022-10-31T07:32:39;18.20;;;14.87;;
13743;SDS011;6943;52.368;9.966;2022-10-31T07:35:07;19.63;;;15.30;;
13743;SDS011;6943;52.368;9.966;2022-10-31T07:37:34;19.23;;;15.23;;
13743;SDS011;6943;52.368;9.966;2022-10-31T07:40:00;19.13;;;15.37;;
13743;SDS011;6943;52.368;9.966;2022-10-31T07:42:26;19.83;;;15.57;;
13743;SDS011;6943;52.368;9.966;2022-10-31T07:44:52;20.37;;;14.63;;
13743;SDS011;6943;52.368;9.966;2022-10-31T07:47:17;18.40;;;14.63;;
13743;SDS011;6943;52.368;9.966;2022-10-31T07:49:43;19.10;;;14.33;;
13743;SDS011;6943;52.368;9.966;2022-10-31T07:52:08;19.13;;;14.13;;
13743;SDS011;6943;52.368;9.966;2022-10-31T07:54:33;20.47;;;14.20;;
13743;SDS011;6943;52.368;9.966;2022-10-31T07:56:59;18.23;;;13.93;;
13743;SDS011;6943;52.368;9.966;2022-10-31T07:59:24;17.10;;;14.40;;
13743;SDS011;6943;52.368;9.966;2022-10-31T08:01:52;21.60;;;16.00;;
13743;SDS011;6943;52.368;9.966;2022-10-31T08:04:17;20.43;;;14.07;;
13743;SDS011;6943;52.368;9.966;2022-10-31T08:06:43;16.93;;;14.13;;
13743;SDS011;6943;52.368;9.966;2022-10-31T08:09:08;21.23;;;15.97;;
13743;SDS011;6943;52.368;9.966;2022-10-31T08:11:34;19.53;;;15.80;;
13743;SDS011;6943;52.368;9.966;2022-10-31T08:13:59;22.37;;;16.03;;
13743;SDS011;6943;52.368;9.966;2022-10-31T08:16:26;21.23;;;15.40;;
13743;SDS011;6943;52.368;9.966;2022-10-31T08:18:52;21.30;;;15.10;;
13743;SDS011;6943;52.368;9.966;2022-10-31T08:21:20;21.77;;;16.37;;
13743;SDS011;6943;52.368;9.966;2022-10-31T08:23:45;20.23;;;15.53;;
13743;SDS011;6943;52.368;9.966;2022-10-31T08:26:11;25.03;;;15.33;;
13743;SDS011;6943;52.368;9.966;2022-10-31T08:28:37;22.40;;;15.70;;
13743;SDS011;6943;52.368;9.966;2022-10-31T08:31:03;20.83;;;15.87;;
13743;SDS011;6943;52.368;9.966;2022-10-31T08:33:29;21.77;;;16.43;;
13743;SDS011;6943;52.368;9.966;2022-10-31T08:35:57;24.70;;;17.50;;
13743;SDS011;6943;52.368;9.966;2022-10-31T08:38:23;22.50;;;16.60;;
13743;SDS011;6943;52.368;9.966;2022-10-31T08:40:49;21.13;;;16.60;;
13743;SDS011;6943;52.368;9.966;2022-10-31T08:43:16;25.27;;;16.60;;
13743;SDS011;6943;52.368;9.966;2022-10-31T08:45:42;24.37;;;15.83;;
13743;SDS011;6943;52.368;9.966;2022-10-31T08:48:09;22.87;;;15.77;;
13743;SDS011;6943;52.368;9.966;2022-10-31T08:50:36;19.60;;;15.23;;
13743;SDS011;6943;52.368;9.966;2022-10-31T08:53:03;25.03;;;16.47;;
13743;SDS011;6943;52.368;9.966;2022-10-31T08:55:30;23.03;;;16.23;;
13743;SDS011;6943;52.368;9.966;2022-10-31T08:57:56;22.20;;;15.53;;
13743;SDS011;6943;52.368;9.966;2022-10-31T09:00:22;22.20;;;16.00;;
13743;SDS011;6943;52.368;9.966;2022-10-31T09:02:54;21.73;;;15.83;;
13743;SDS011;6943;52.368;9.966;2022-10-31T09:05:20;24.30;;;16.03;;
13743;SDS011;6943;52.368;9.966;2022-10-31T09:07:46;23.43;;;15.30;;
13743;SDS011;6943;52.368;9.966;2022-10-31T09:10:12;23.40;;;16.23;;
13743;SDS011;6943;52.368;9.966;2022-10-31T09:12:38;21.53;;;16.90;;
13743;SDS011;6943;52.368;9.966;2022-10-31T09:15:04;22.37;;;17.00;;
13743;SDS011;6943;52.368;9.966;2022-10-31T09:17:31;22.00;;;16.60;;
13743;SDS011;6943;52.368;9.966;2022-10-31T09:19:57;22.93;;;15.63;;
13743;SDS011;6943;52.368;9.966;2022-10-31T09:22:23;23.40;;;16.77;;
13743;SDS011;6943;52.368;9.966;2022-10-31T09:24:49;24.43;;;17.30;;
13743;SDS011;6943;52.368;9.966;2022-10-31T09:27:15;22.13;;;16.90;;
13743;SDS011;6943;52.368;9.966;2022-10-31T09:29:41;27.20;;;17.40;;
13743;SDS011;6943;52.368;9.966;2022-10-31T09:32:07;27.70;;;17.23;;
13743;SDS011;6943;52.368;9.966;2022-10-31T09:34:33;23.57;;;16.20;;
13743;SDS011;6943;52.368;9.966;2022-10-31T09:36:59;29.47;;;18.27;;
13743;SDS011;6943;52.368;9.966;2022-10-31T09:39:24;22.53;;;17.63;;
13743;SDS011;6943;52.368;9.966;2022-10-31T09:44:22;27.10;;;19.67;;
13743;SDS011;6943;52.368;9.966;2022-10-31T09:49:23;26.67;;;18.73;;
13743;SDS011;6943;52.368;9.966;2022-10-31T09:51:56;25.57;;;18.13;;
13743;SDS011;6943;52.368;9.966;2022-10-31T09:54:28;27.17;;;17.73;;
13743;SDS011;6943;52.368;9.966;2022-10-31T09:56:56;29.77;;;21.57;;
13743;SDS011;6943;52.368;9.966;2022-10-31T09:59:30;25.63;;;18.57;;
13743;SDS011;6943;52.368;9.966;2022-10-31T10:02:00;28.63;;;18.97;;
13743;SDS011;6943;52.368;9.966;2022-10-31T10:06:52;30.27;;;20.40;;
13743;SDS011;6943;52.368;9.966;2022-10-31T10:09:20;31.60;;;19.57;;
13743;SDS011;6943;52.368;9.966;2022-10-31T10:15:00;29.83;;;20.60;;
13743;SDS011;6943;52.368;9.966;2022-10-31T10:20:03;34.37;;;22.07;;
13743;SDS011;6943;52.368;9.966;2022-10-31T10:22:46;28.80;;;20.37;;
13743;SDS011;6943;52.368;9.966;2022-10-31T10:25:15;38.87;;;22.60;;
13743;SDS011;6943;52.368;9.966;2022-10-31T10:32:51;32.17;;;21.13;;
13743;SDS011;6943;52.368;9.966;2022-10-31T10:35:40;32.27;;;21.43;;
13743;SDS011;6943;52.368;9.966;2022-10-31T10:38:09;29.90;;;20.87;;
13743;SDS011;6943;52.368;9.966;2022-10-31T10:40:36;33.40;;;21.43;;
13743;SDS011;6943;52.368;9.966;2022-10-31T10:45:46;29.57;;;20.47;;
13743;SDS011;6943;52.368;9.966;2022-10-31T10:50:59;30.03;;;19.80;;
13743;SDS011;6943;52.368;9.966;2022-10-31T10:56:45;29.53;;;20.20;;
13743;SDS011;6943;52.368;9.966;2022-10-31T10:59:13;29.93;;;21.03;;
13743;SDS011;6943;52.368;9.966;2022-10-31T11:01:41;32.43;;;19.17;;
13743;SDS011;6943;52.368;9.966;2022-10-31T11:04:20;31.90;;;20.77;;
13743;SDS011;6943;52.368;9.966;2022-10-31T11:06:56;29.53;;;19.03;;
13743;SDS011;6943;52.368;9.966;2022-10-31T11:09:22;27.40;;;18.90;;
13743;SDS011;6943;52.368;9.966;2022-10-31T11:11:48;31.60;;;19.00;;
13743;SDS011;6943;52.368;9.966;2022-10-31T11:14:15;29.67;;;18.23;;
13743;SDS011;6943;52.368;9.966;2022-10-31T11:16:44;27.13;;;18.50;;
13743;SDS011;6943;52.368;9.966;2022-10-31T11:19:13;30.67;;;18.97;;
13743;SDS011;6943;52.368;9.966;2022-10-31T11:21:42;27.70;;;17.97;;
13743;SDS011;6943;52.368;9.966;2022-10-31T11:26:38;27.13;;;16.37;;
13743;SDS011;6943;52.368;9.966;2022-10-31T11:29:05;26.07;;;16.97;;
13743;SDS011;6943;52.368;9.966;2022-10-31T11:31:37;29.83;;;19.13;;
13743;SDS011;6943;52.368;9.966;2022-10-31T11:34:03;26.73;;;18.50;;
13743;SDS011;6943;52.368;9.966;2022-10-31T11:36:31;26.80;;;18.60;;
13743;SDS011;6943;52.368;9.966;2022-10-31T11:38:59;29.47;;;17.50;;
13743;SDS011;6943;52.368;9.966;2022-10-31T11:41:26;28.23;;;17.97;;
13743;SDS011;6943;52.368;9.966;2022-10-31T11:43:55;29.27;;;18.63;;
13743;SDS011;6943;52.368;9.966;2022-10-31T11:46:30;32.20;;;17.90;;
13743;SDS011;6943;52.368;9.966;2022-10-31T11:48:58;29.47;;;17.20;;
13743;SDS011;6943;52.368;9.966;2022-10-31T11:51:25;28.40;;;16.50;;
13743;SDS011;6943;52.368;9.966;2022-10-31T11:53:52;24.80;;;14.90;;
13743;SDS011;6943;52.368;9.966;2022-10-31T11:56:19;25.93;;;16.17;;
13743;SDS011;6943;52.368;9.966;2022-10-31T11:58:55;26.67;;;16.70;;
13743;SDS011;6943;52.368;9.966;2022-10-31T12:01:24;25.10;;;15.10;;
13743;SDS011;6943;52.368;9.966;2022-10-31T12:06:18;24.70;;;14.13;;
13743;SDS011;6943;52.368;9.966;2022-10-31T12:08:46;22.77;;;15.37;;
13743;SDS011;6943;52.368;9.966;2022-10-31T12:11:30;21.50;;;14.10;;
13743;SDS011;6943;52.368;9.966;2022-10-31T12:21:52;22.87;;;14.93;;
13743;SDS011;6943;52.368;9.966;2022-10-31T12:27:08;26.30;;;15.23;;
13743;SDS011;6943;52.368;9.966;2022-10-31T12:32:17;21.27;;;13.40;;
13743;SDS011;6943;52.368;9.966;2022-10-31T12:37:18;21.33;;;13.00;;
13743;SDS011;6943;52.368;9.966;2022-10-31T12:39:56;23.57;;;13.23;;
13743;SDS011;6943;52.368;9.966;2022-10-31T12:45:00;25.80;;;12.90;;
13743;SDS011;6943;52.368;9.966;2022-10-31T12:50:26;28.47;;;16.77;;
13743;SDS011;6943;52.368;9.966;2022-10-31T12:52:56;30.00;;;18.60;;
13743;SDS011;6943;52.368;9.966;2022-10-31T12:55:31;26.40;;;18.50;;
13743;SDS011;6943;52.368;9.966;2022-10-31T12:58:00;28.93;;;20.07;;
13743;SDS011;6943;52.368;9.966;2022-10-31T13:00:27;32.10;;;20.07;;
13743;SDS011;6943;52.368;9.966;2022-10-31T13:05:36;30.53;;;19.17;;
13743;SDS011;6943;52.368;9.966;2022-10-31T13:08:04;25.87;;;19.33;;
13743;SDS011;6943;52.368;9.966;2022-10-31T13:13:00;32.97;;;22.73;;
13743;SDS011;6943;52.368;9.966;2022-10-31T13:15:27;35.57;;;23.97;;
13743;SDS011;6943;52.368;9.966;2022-10-31T13:17:55;36.77;;;24.13;;
13743;SDS011;6943;52.368;9.966;2022-10-31T13:22:56;38.43;;;24.83;;
13743;SDS011;6943;52.368;9.966;2022-10-31T13:25:27;36.93;;;24.43;;
13743;SDS011;6943;52.368;9.966;2022-10-31T13:27:56;36.73;;;24.73;;
13743;SDS011;6943;52.368;9.966;2022-10-31T13:30:25;31.50;;;22.97;;
13743;SDS011;6943;52.368;9.966;2022-10-31T13:32:54;34.67;;;22.50;;
13743;SDS011;6943;52.368;9.966;2022-10-31T13:37:54;36.33;;;23.03;;
13743;SDS011;6943;52.368;9.966;2022-10-31T13:40:41;37.80;;;24.10;;
13743;SDS011;6943;52.368;9.966;2022-10-31T13:43:21;35.37;;;22.93;;
13743;SDS011;6943;52.368;9.966;2022-10-31T13:45:49;35.50;;;23.43;;
13743;SDS011;6943;52.368;9.966;2022-10-31T13:50:42;33.80;;;22.77;;
13743;SDS011;6943;52.368;9.966;2022-10-31T13:53:20;33.63;;;22.47;;
13743;SDS011;6943;52.368;9.966;2022-10-31T13:55:48;35.47;;;23.87;;
13743;SDS011;6943;52.368;9.966;2022-10-31T13:58:35;34.43;;;22.33;;
13743;SDS011;6943;52.368;9.966;2022-10-31T14:01:05;33.93;;;22.63;;
13743;SDS011;6943;52.368;9.966;2022-10-31T14:03:39;34.83;;;24.07;;
13743;SDS011;6943;52.368;9.966;2022-10-31T14:06:06;36.27;;;22.60;;
13743;SDS011;6943;52.368;9.966;2022-10-31T14:08:33;42.27;;;25.67;;
13743;SDS011;6943;52.368;9.966;2022-10-31T14:11:01;37.50;;;23.97;;
13743;SDS011;6943;52.368;9.966;2022-10-31T14:13:37;40.23;;;24.23;;
13743;SDS011;6943;52.368;9.966;2022-10-31T14:16:18;40.67;;;23.77;;
13743;SDS011;6943;52.368;9.966;2022-10-31T14:18:48;37.77;;;23.57;;
13743;SDS011;6943;52.368;9.966;2022-10-31T14:21:27;39.73;;;23.27;;
13743;SDS011;6943;52.368;9.966;2022-10-31T14:23:54;36.17;;;21.87;;
13743;SDS011;6943;52.368;9.966;2022-10-31T14:28:56;44.07;;;23.80;;
13743;SDS011;6943;52.368;9.966;2022-10-31T14:31:39;35.40;;;23.67;;
13743;SDS011;6943;52.368;9.966;2022-10-31T14:40:02;34.43;;;21.83;;
13743;SDS011;6943;52.368;9.966;2022-10-31T14:42:47;35.67;;;22.93;;
13743;SDS011;6943;52.368;9.966;2022-10-31T14:45:21;32.03;;;20.90;;
13743;SDS011;6943;52.368;9.966;2022-10-31T14:50:50;37.50;;;22.10;;
13743;SDS011;6943;52.368;9.966;2022-10-31T14:55:53;35.60;;;22.37;;
13743;SDS011;6943;52.368;9.966;2022-10-31T15:00:58;42.50;;;23.67;;
13743;SDS011;6943;52.368;9.966;2022-10-31T15:03:32;38.10;;;22.27;;
13743;SDS011;6943;52.368;9.966;2022-10-31T15:06:03;38.40;;;23.03;;
13743;SDS011;6943;52.368;9.966;2022-10-31T15:08:34;38.90;;;23.57;;
13743;SDS011;6943;52.368;9.966;2022-10-31T15:11:13;38.33;;;22.57;;
13743;SDS011;6943;52.368;9.966;2022-10-31T15:16:13;41.27;;;23.67;;
13743;SDS011;6943;52.368;9.966;2022-10-31T15:18:44;41.67;;;22.70;;
13743;SDS011;6943;52.368;9.966;2022-10-31T15:21:17;35.50;;;23.30;;
13743;SDS011;6943;52.368;9.966;2022-10-31T15:23:46;35.53;;;23.00;;
13743;SDS011;6943;52.368;9.966;2022-10-31T15:26:17;38.23;;;23.77;;
13743;SDS011;6943;52.368;9.966;2022-10-31T15:28:45;36.50;;;23.53;;
13743;SDS011;6943;52.368;9.966;2022-10-31T15:31:15;43.67;;;23.07;;
13743;SDS011;6943;52.368;9.966;2022-10-31T15:33:42;37.20;;;23.40;;
13743;SDS011;6943;52.368;9.966;2022-10-31T15:36:20;38.50;;;24.60;;
13743;SDS011;6943;52.368;9.966;2022-10-31T15:38:51;41.00;;;23.63;;
13743;SDS011;6943;52.368;9.966;2022-10-31T15:46:52;38.27;;;24.07;;
13743;SDS011;6943;52.368;9.966;2022-10-31T15:49:34;41.03;;;26.33;;
13743;SDS011;6943;52.368;9.966;2022-10-31T15:52:12;38.07;;;23.60;;
13743;SDS011;6943;52.368;9.966;2022-10-31T15:54:47;37.60;;;24.00;;
13743;SDS011;6943;52.368;9.966;2022-10-31T15:57:15;38.67;;;24.13;;
13743;SDS011;6943;52.368;9.966;2022-10-31T15:59:45;35.03;;;23.63;;
13743;SDS011;6943;52.368;9.966;2022-10-31T16:02:12;38.93;;;24.80;;
13743;SDS011;6943;52.368;9.966;2022-10-31T16:04:49;39.20;;;24.87;;
13743;SDS011;6943;52.368;9.966;2022-10-31T16:07:17;39.97;;;23.90;;
13743;SDS011;6943;52.368;9.966;2022-10-31T16:12:15;41.90;;;25.23;;
13743;SDS011;6943;52.368;9.966;2022-10-31T16:14:41;38.27;;;24.50;;
13743;SDS011;6943;52.368;9.966;2022-10-31T16:17:12;41.23;;;24.17;;
13743;SDS011;6943;52.368;9.966;2022-10-31T16:19:50;44.73;;;23.93;;
13743;SDS011;6943;52.368;9.966;2022-10-31T16:22:23;42.80;;;23.73;;
13743;SDS011;6943;52.368;9.966;2022-10-31T16:24:55;37.13;;;23.60;;
13743;SDS011;6943;52.368;9.966;2022-10-31T16:27:26;39.63;;;24.30;;
13743;SDS011;6943;52.368;9.966;2022-10-31T16:29:55;40.97;;;24.23;;
13743;SDS011;6943;52.368;9.966;2022-10-31T16:32:36;37.97;;;24.57;;
13743;SDS011;6943;52.368;9.966;2022-10-31T16:37:40;36.80;;;22.90;;
13743;SDS011;6943;52.368;9.966;2022-10-31T16:40:15;43.00;;;24.03;;
13743;SDS011;6943;52.368;9.966;2022-10-31T16:42:43;38.30;;;23.00;;
13743;SDS011;6943;52.368;9.966;2022-10-31T16:45:15;35.53;;;21.73;;
13743;SDS011;6943;52.368;9.966;2022-10-31T16:47:43;38.57;;;24.53;;
13743;SDS011;6943;52.368;9.966;2022-10-31T16:50:13;40.23;;;22.97;;